sensor_id;sensor_type;location;lat;lon;timestamp;P1;durP1;ratioP1;P2;durP2;ratioP2
56321;SDS011;42227;6.376;-10.782;2022-11-15T00:02:30;11.38;;;5.32;;
56321;SDS011;42227;6.376;-10.782;2022-11-15T00:05:18;8.43;;;5.32;;
56321;SDS011;42227;6.376;-10.782;2022-11-15T00:08:18;10.15;;;5.60;;
56321;SDS011;42227;6.376;-10.782;2022-11-15T00:11:05;10.25;;;4.40;;
56321;SDS011;42227;6.376;-10.782;2022-11-15T00:13:55;11.15;;;5.55;;
56321;SDS011;42227;6.376;-10.782;2022-11-15T00:16:42;16.35;;;4.85;;
56321;SDS011;42227;6.376;-10.782;2022-11-15T00:19:29;12.55;;;5.00;;
56321;SDS011;42227;6.376;-10.782;2022-11-15T00:22:15;12.63;;;5.22;;
56321;SDS011;42227;6.376;-10.782;2022-11-15T00:25:01;12.30;;;6.18;;
56321;SDS011;42227;6.376;-10.782;2022-11-15T00:27:49;12.35;;;6.63;;
56321;SDS011;42227;6.376;-10.782;2022-11-15T00:30:35;22.77;;;12.82;;
56321;SDS011;42227;6.376;-10.782;2022-11-15T00:33:22;12.65;;;7.07;;
56321;SDS011;42227;6.376;-10.782;2022-11-15T00:36:09;12.18;;;6.28;;
56321;SDS011;42227;6.376;-10.782;2022-11-15T00:38:56;13.48;;;5.05;;
56321;SDS011;42227;6.376;-10.782;2022-11-15T00:41:42;10.95;;;5.47;;
56321;SDS011;42227;6.376;-10.782;2022-11-15T00:44:29;8.13;;;5.07;;
56321;SDS011;42227;6.376;-10.782;2022-11-15T00:47:16;11.35;;;5.70;;
56321;SDS011;42227;6.376;-10.782;2022-11-15T00:50:03;9.07;;;6.32;;
56321;SDS011;42227;6.376;-10.782;2022-11-15T00:52:50;9.15;;;4.45;;
56321;SDS011;42227;6.376;-10.782;2022-11-15T00:55:36;6.95;;;3.85;;
56321;SDS011;42227;6.376;-10.782;2022-11-15T00:58:23;14.93;;;6.00;;
56321;SDS011;42227;6.376;-10.782;2022-11-15T01:01:10;10.15;;;4.90;;
56321;SDS011;42227;6.376;-10.782;2022-11-15T01:03:58;11.35;;;6.82;;
56321;SDS011;42227;6.376;-10.782;2022-11-15T01:06:45;11.07;;;6.07;;
56321;SDS011;42227;6.376;-10.782;2022-11-15T01:09:32;9.07;;;5.93;;
56321;SDS011;42227;6.376;-10.782;2022-11-15T01:12:19;8.30;;;5.65;;
56321;SDS011;42227;6.376;-10.782;2022-11-15T01:15:05;12.35;;;5.95;;
56321;SDS011;42227;6.376;-10.782;2022-11-15T01:17:52;10.00;;;5.93;;
56321;SDS011;42227;6.376;-10.782;2022-11-15T01:20:41;12.82;;;5.45;;
56321;SDS011;42227;6.376;-10.782;2022-11-15T01:23:28;10.68;;;5.35;;
56321;SDS011;42227;6.376;-10.782;2022-11-15T01:26:15;8.02;;;5.85;;
56321;SDS011;42227;6.376;-10.782;2022-11-15T01:29:02;9.48;;;4.90;;
56321;SDS011;42227;6.376;-10.782;2022-11-15T01:31:48;11.10;;;4.93;;
56321;SDS011;42227;6.376;-10.782;2022-11-15T01:34:35;7.32;;;3.75;;
56321;SDS011;42227;6.376;-10.782;2022-11-15T01:37:21;12.30;;;4.78;;
56321;SDS011;42227;6.376;-10.782;2022-11-15T01:40:07;6.25;;;4.65;;
56321;SDS011;42227;6.376;-10.782;2022-11-15T01:42:54;7.78;;;5.00;;
56321;SDS011;42227;6.376;-10.782;2022-11-15T01:45:40;12.18;;;4.32;;
56321;SDS011;42227;6.376;-10.782;2022-11-15T01:48:30;9.38;;;5.18;;
56321;SDS011;42227;6.376;-10.782;2022-11-15T01:51:19;8.63;;;4.97;;
56321;SDS011;42227;6.376;-10.782;2022-11-15T01:54:08;6.93;;;4.82;;
56321;SDS011;42227;6.376;-10.782;2022-11-15T01:57:00;13.23;;;7.07;;
56321;SDS011;42227;6.376;-10.782;2022-11-15T01:59:50;13.27;;;6.75;;
56321;SDS011;42227;6.376;-10.782;2022-11-15T02:02:36;15.70;;;6.32;;
56321;SDS011;42227;6.376;-10.782;2022-11-15T02:05:23;23.50;;;10.27;;
56321;SDS011;42227;6.376;-10.782;2022-11-15T02:08:10;21.13;;;10.35;;
56321;SDS011;42227;6.376;-10.782;2022-11-15T02:10:57;30.90;;;11.02;;
56321;SDS011;42227;6.376;-10.782;2022-11-15T02:13:43;28.33;;;13.25;;
56321;SDS011;42227;6.376;-10.782;2022-11-15T02:29:19;15.23;;;7.75;;
56321;SDS011;42227;6.376;-10.782;2022-11-15T02:32:24;18.48;;;7.63;;
56321;SDS011;42227;6.376;-10.782;2022-11-15T02:41:35;19.07;;;6.87;;
56321;SDS011;42227;6.376;-10.782;2022-11-15T02:44:41;17.67;;;5.78;;
56321;SDS011;42227;6.376;-10.782;2022-11-15T02:47:32;20.73;;;6.68;;
56321;SDS011;42227;6.376;-10.782;2022-11-15T02:50:24;10.10;;;6.65;;
56321;SDS011;42227;6.376;-10.782;2022-11-15T02:53:14;26.75;;;7.43;;
56321;SDS011;42227;6.376;-10.782;2022-11-15T02:56:01;21.85;;;9.85;;
56321;SDS011;42227;6.376;-10.782;2022-11-15T03:05:03;18.85;;;6.68;;
56321;SDS011;42227;6.376;-10.782;2022-11-15T03:08:09;19.75;;;7.93;;
56321;SDS011;42227;6.376;-10.782;2022-11-15T03:20:04;15.75;;;7.28;;
56321;SDS011;42227;6.376;-10.782;2022-11-15T03:22:52;21.38;;;6.93;;
56321;SDS011;42227;6.376;-10.782;2022-11-15T03:25:43;13.35;;;6.60;;
56321;SDS011;42227;6.376;-10.782;2022-11-15T03:28:35;13.05;;;6.18;;
56321;SDS011;42227;6.376;-10.782;2022-11-15T03:31:39;14.50;;;5.95;;
56321;SDS011;42227;6.376;-10.782;2022-11-15T03:38:14;8.68;;;5.13;;
56321;SDS011;42227;6.376;-10.782;2022-11-15T03:41:00;15.10;;;5.63;;
56321;SDS011;42227;6.376;-10.782;2022-11-15T03:43:55;20.58;;;7.45;;
56321;SDS011;42227;6.376;-10.782;2022-11-15T03:50:13;8.40;;;6.28;;
56321;SDS011;42227;6.376;-10.782;2022-11-15T03:53:03;11.10;;;6.15;;
56321;SDS011;42227;6.376;-10.782;2022-11-15T03:55:50;14.88;;;6.78;;
56321;SDS011;42227;6.376;-10.782;2022-11-15T03:58:38;20.40;;;7.00;;
56321;SDS011;42227;6.376;-10.782;2022-11-15T04:01:24;17.17;;;7.80;;
56321;SDS011;42227;6.376;-10.782;2022-11-15T04:04:12;13.93;;;8.52;;
56321;SDS011;42227;6.376;-10.782;2022-11-15T04:06:59;15.35;;;8.18;;
56321;SDS011;42227;6.376;-10.782;2022-11-15T04:09:45;19.40;;;9.45;;
56321;SDS011;42227;6.376;-10.782;2022-11-15T04:12:38;14.15;;;9.73;;
56321;SDS011;42227;6.376;-10.782;2022-11-15T04:15:26;11.23;;;5.55;;
56321;SDS011;42227;6.376;-10.782;2022-11-15T04:18:12;20.48;;;12.10;;
56321;SDS011;42227;6.376;-10.782;2022-11-15T04:20:59;22.17;;;9.63;;
56321;SDS011;42227;6.376;-10.782;2022-11-15T04:23:45;17.40;;;9.18;;
56321;SDS011;42227;6.376;-10.782;2022-11-15T04:26:31;12.63;;;7.25;;
56321;SDS011;42227;6.376;-10.782;2022-11-15T04:29:18;19.55;;;9.35;;
56321;SDS011;42227;6.376;-10.782;2022-11-15T04:32:05;10.15;;;6.45;;
56321;SDS011;42227;6.376;-10.782;2022-11-15T04:34:52;10.48;;;6.38;;
56321;SDS011;42227;6.376;-10.782;2022-11-15T04:37:38;17.85;;;6.43;;
56321;SDS011;42227;6.376;-10.782;2022-11-15T04:40:33;15.30;;;7.90;;
56321;SDS011;42227;6.376;-10.782;2022-11-15T04:43:19;11.88;;;5.57;;
56321;SDS011;42227;6.376;-10.782;2022-11-15T04:46:06;24.27;;;7.38;;
56321;SDS011;42227;6.376;-10.782;2022-11-15T04:48:53;12.65;;;6.40;;
56321;SDS011;42227;6.376;-10.782;2022-11-15T04:51:43;7.18;;;5.95;;
56321;SDS011;42227;6.376;-10.782;2022-11-15T04:54:30;8.65;;;5.85;;
56321;SDS011;42227;6.376;-10.782;2022-11-15T04:57:16;10.88;;;5.35;;
56321;SDS011;42227;6.376;-10.782;2022-11-15T05:00:07;11.43;;;5.97;;
56321;SDS011;42227;6.376;-10.782;2022-11-15T05:02:56;6.63;;;5.30;;
56321;SDS011;42227;6.376;-10.782;2022-11-15T05:05:43;11.65;;;5.15;;
56321;SDS011;42227;6.376;-10.782;2022-11-15T05:08:29;8.25;;;4.65;;
56321;SDS011;42227;6.376;-10.782;2022-11-15T05:11:16;9.88;;;5.40;;
56321;SDS011;42227;6.376;-10.782;2022-11-15T05:14:02;12.35;;;7.88;;
56321;SDS011;42227;6.376;-10.782;2022-11-15T05:16:49;7.43;;;6.07;;
56321;SDS011;42227;6.376;-10.782;2022-11-15T05:19:35;7.85;;;3.58;;
56321;SDS011;42227;6.376;-10.782;2022-11-15T05:22:22;3.85;;;3.22;;
56321;SDS011;42227;6.376;-10.782;2022-11-15T05:25:08;11.73;;;3.97;;
56321;SDS011;42227;6.376;-10.782;2022-11-15T05:27:55;6.32;;;4.30;;
56321;SDS011;42227;6.376;-10.782;2022-11-15T05:30:41;7.55;;;4.18;;
56321;SDS011;42227;6.376;-10.782;2022-11-15T05:33:28;8.68;;;5.38;;
56321;SDS011;42227;6.376;-10.782;2022-11-15T05:39:20;20.70;;;7.97;;
56321;SDS011;42227;6.376;-10.782;2022-11-15T05:44:57;11.52;;;9.35;;
56321;SDS011;42227;6.376;-10.782;2022-11-15T05:47:45;21.33;;;8.68;;
56321;SDS011;42227;6.376;-10.782;2022-11-15T05:50:35;18.40;;;9.95;;
56321;SDS011;42227;6.376;-10.782;2022-11-15T05:53:24;19.70;;;9.52;;
56321;SDS011;42227;6.376;-10.782;2022-11-15T05:56:11;15.07;;;8.00;;
56321;SDS011;42227;6.376;-10.782;2022-11-15T05:58:59;11.15;;;5.72;;
56321;SDS011;42227;6.376;-10.782;2022-11-15T06:01:46;11.20;;;6.03;;
56321;SDS011;42227;6.376;-10.782;2022-11-15T06:04:33;9.55;;;5.20;;
56321;SDS011;42227;6.376;-10.782;2022-11-15T06:07:19;8.63;;;4.57;;
56321;SDS011;42227;6.376;-10.782;2022-11-15T06:10:06;9.43;;;5.85;;
56321;SDS011;42227;6.376;-10.782;2022-11-15T06:12:59;9.50;;;6.22;;
56321;SDS011;42227;6.376;-10.782;2022-11-15T06:15:47;7.63;;;5.03;;
56321;SDS011;42227;6.376;-10.782;2022-11-15T06:18:34;14.88;;;5.63;;
56321;SDS011;42227;6.376;-10.782;2022-11-15T06:21:21;10.98;;;5.20;;
56321;SDS011;42227;6.376;-10.782;2022-11-15T06:24:07;11.13;;;4.85;;
56321;SDS011;42227;6.376;-10.782;2022-11-15T06:26:54;17.00;;;5.53;;
56321;SDS011;42227;6.376;-10.782;2022-11-15T06:29:41;6.60;;;4.63;;
56321;SDS011;42227;6.376;-10.782;2022-11-15T06:32:28;11.07;;;5.20;;
56321;SDS011;42227;6.376;-10.782;2022-11-15T06:35:15;13.07;;;5.32;;
56321;SDS011;42227;6.376;-10.782;2022-11-15T06:38:03;10.90;;;5.18;;
56321;SDS011;42227;6.376;-10.782;2022-11-15T06:40:51;8.43;;;5.10;;
56321;SDS011;42227;6.376;-10.782;2022-11-15T06:43:37;17.75;;;5.25;;
56321;SDS011;42227;6.376;-10.782;2022-11-15T06:46:25;14.13;;;5.53;;
56321;SDS011;42227;6.376;-10.782;2022-11-15T06:49:11;12.20;;;5.70;;
56321;SDS011;42227;6.376;-10.782;2022-11-15T06:51:57;12.80;;;6.20;;
56321;SDS011;42227;6.376;-10.782;2022-11-15T06:54:44;9.32;;;5.72;;
56321;SDS011;42227;6.376;-10.782;2022-11-15T06:57:31;20.90;;;7.68;;
56321;SDS011;42227;6.376;-10.782;2022-11-15T07:00:18;15.10;;;7.93;;
56321;SDS011;42227;6.376;-10.782;2022-11-15T07:03:06;14.07;;;8.15;;
56321;SDS011;42227;6.376;-10.782;2022-11-15T07:05:53;10.30;;;6.45;;
56321;SDS011;42227;6.376;-10.782;2022-11-15T07:08:45;8.95;;;5.50;;
56321;SDS011;42227;6.376;-10.782;2022-11-15T07:11:32;10.52;;;7.20;;
56321;SDS011;42227;6.376;-10.782;2022-11-15T07:14:19;10.45;;;7.03;;
56321;SDS011;42227;6.376;-10.782;2022-11-15T07:17:05;9.18;;;7.15;;
56321;SDS011;42227;6.376;-10.782;2022-11-15T07:19:52;12.13;;;6.43;;
56321;SDS011;42227;6.376;-10.782;2022-11-15T07:22:38;11.98;;;6.22;;
56321;SDS011;42227;6.376;-10.782;2022-11-15T07:25:25;13.48;;;6.03;;
56321;SDS011;42227;6.376;-10.782;2022-11-15T07:28:12;7.63;;;5.25;;
56321;SDS011;42227;6.376;-10.782;2022-11-15T07:31:01;5.97;;;4.38;;
56321;SDS011;42227;6.376;-10.782;2022-11-15T07:33:48;9.93;;;5.55;;
56321;SDS011;42227;6.376;-10.782;2022-11-15T07:36:35;7.30;;;3.85;;
56321;SDS011;42227;6.376;-10.782;2022-11-15T07:39:21;7.78;;;3.97;;
56321;SDS011;42227;6.376;-10.782;2022-11-15T07:42:07;6.55;;;4.15;;
56321;SDS011;42227;6.376;-10.782;2022-11-15T07:44:54;9.00;;;3.80;;
56321;SDS011;42227;6.376;-10.782;2022-11-15T07:47:40;13.00;;;4.55;;
56321;SDS011;42227;6.376;-10.782;2022-11-15T07:50:30;8.27;;;4.25;;
56321;SDS011;42227;6.376;-10.782;2022-11-15T07:53:16;4.68;;;3.90;;
56321;SDS011;42227;6.376;-10.782;2022-11-15T07:56:05;4.07;;;3.33;;
56321;SDS011;42227;6.376;-10.782;2022-11-15T07:58:52;7.00;;;4.00;;
56321;SDS011;42227;6.376;-10.782;2022-11-15T08:01:41;12.48;;;4.95;;
56321;SDS011;42227;6.376;-10.782;2022-11-15T08:04:28;6.85;;;5.10;;
56321;SDS011;42227;6.376;-10.782;2022-11-15T08:07:15;8.68;;;4.75;;
56321;SDS011;42227;6.376;-10.782;2022-11-15T08:10:02;7.70;;;4.10;;
56321;SDS011;42227;6.376;-10.782;2022-11-15T08:12:56;5.55;;;4.25;;
56321;SDS011;42227;6.376;-10.782;2022-11-15T08:15:46;7.20;;;5.20;;
56321;SDS011;42227;6.376;-10.782;2022-11-15T08:18:40;6.18;;;4.30;;
56321;SDS011;42227;6.376;-10.782;2022-11-15T08:21:26;7.28;;;5.00;;
56321;SDS011;42227;6.376;-10.782;2022-11-15T08:24:13;9.45;;;4.07;;
56321;SDS011;42227;6.376;-10.782;2022-11-15T08:27:00;7.85;;;4.35;;
56321;SDS011;42227;6.376;-10.782;2022-11-15T08:29:47;7.13;;;3.92;;
56321;SDS011;42227;6.376;-10.782;2022-11-15T08:32:35;12.55;;;4.05;;
56321;SDS011;42227;6.376;-10.782;2022-11-15T08:35:21;4.32;;;3.22;;
56321;SDS011;42227;6.376;-10.782;2022-11-15T08:38:13;7.93;;;4.20;;
56321;SDS011;42227;6.376;-10.782;2022-11-15T08:41:00;6.70;;;2.72;;
56321;SDS011;42227;6.376;-10.782;2022-11-15T08:43:50;6.95;;;3.55;;
56321;SDS011;42227;6.376;-10.782;2022-11-15T08:46:37;6.32;;;3.35;;
56321;SDS011;42227;6.376;-10.782;2022-11-15T08:49:23;6.38;;;3.33;;
56321;SDS011;42227;6.376;-10.782;2022-11-15T08:52:09;10.70;;;3.92;;
56321;SDS011;42227;6.376;-10.782;2022-11-15T08:54:56;8.50;;;4.13;;
56321;SDS011;42227;6.376;-10.782;2022-11-15T08:57:42;6.65;;;3.67;;
56321;SDS011;42227;6.376;-10.782;2022-11-15T09:00:29;9.57;;;3.45;;
56321;SDS011;42227;6.376;-10.782;2022-11-15T09:03:15;6.85;;;3.28;;
56321;SDS011;42227;6.376;-10.782;2022-11-15T09:06:01;13.90;;;4.47;;
56321;SDS011;42227;6.376;-10.782;2022-11-15T09:08:48;9.10;;;3.80;;
56321;SDS011;42227;6.376;-10.782;2022-11-15T09:11:34;9.85;;;4.28;;
56321;SDS011;42227;6.376;-10.782;2022-11-15T09:14:21;4.80;;;3.45;;
56321;SDS011;42227;6.376;-10.782;2022-11-15T09:17:08;12.27;;;4.03;;
56321;SDS011;42227;6.376;-10.782;2022-11-15T09:19:55;5.43;;;3.65;;
56321;SDS011;42227;6.376;-10.782;2022-11-15T09:22:41;5.22;;;3.50;;
56321;SDS011;42227;6.376;-10.782;2022-11-15T09:25:28;4.30;;;3.42;;
56321;SDS011;42227;6.376;-10.782;2022-11-15T09:28:14;6.20;;;3.63;;
56321;SDS011;42227;6.376;-10.782;2022-11-15T09:31:02;7.90;;;4.20;;
56321;SDS011;42227;6.376;-10.782;2022-11-15T09:33:50;5.90;;;4.30;;
56321;SDS011;42227;6.376;-10.782;2022-11-15T09:36:37;4.25;;;3.35;;
56321;SDS011;42227;6.376;-10.782;2022-11-15T09:39:23;6.32;;;3.40;;
56321;SDS011;42227;6.376;-10.782;2022-11-15T09:45:23;5.50;;;3.92;;
56321;SDS011;42227;6.376;-10.782;2022-11-15T09:51:50;7.50;;;4.88;;
56321;SDS011;42227;6.376;-10.782;2022-11-15T09:57:15;7.10;;;4.00;;
56321;SDS011;42227;6.376;-10.782;2022-11-15T10:05:37;7.07;;;3.88;;
56321;SDS011;42227;6.376;-10.782;2022-11-15T10:08:25;7.78;;;3.42;;
56321;SDS011;42227;6.376;-10.782;2022-11-15T10:11:11;5.63;;;3.13;;
56321;SDS011;42227;6.376;-10.782;2022-11-15T10:14:13;5.40;;;4.03;;
56321;SDS011;42227;6.376;-10.782;2022-11-15T10:16:51;6.18;;;3.67;;
56321;SDS011;42227;6.376;-10.782;2022-11-15T10:28:11;8.00;;;3.70;;
56321;SDS011;42227;6.376;-10.782;2022-11-15T10:30:46;4.65;;;3.72;;
56321;SDS011;42227;6.376;-10.782;2022-11-15T10:33:31;4.85;;;3.17;;
56321;SDS011;42227;6.376;-10.782;2022-11-15T10:39:10;4.00;;;3.00;;
56321;SDS011;42227;6.376;-10.782;2022-11-15T10:41:32;7.70;;;3.78;;
56321;SDS011;42227;6.376;-10.782;2022-11-15T10:46:35;4.87;;;3.47;;
56321;SDS011;42227;6.376;-10.782;2022-11-15T10:51:47;6.57;;;4.38;;
56321;SDS011;42227;6.376;-10.782;2022-11-15T10:54:36;8.60;;;4.20;;
56321;SDS011;42227;6.376;-10.782;2022-11-15T10:57:15;8.35;;;3.95;;
56321;SDS011;42227;6.376;-10.782;2022-11-15T10:59:47;7.75;;;4.32;;
56321;SDS011;42227;6.376;-10.782;2022-11-15T11:05:50;9.38;;;5.05;;
56321;SDS011;42227;6.376;-10.782;2022-11-15T11:09:00;8.27;;;3.85;;
56321;SDS011;42227;6.376;-10.782;2022-11-15T11:11:44;7.22;;;4.45;;
56321;SDS011;42227;6.376;-10.782;2022-11-15T11:14:21;9.85;;;4.70;;
56321;SDS011;42227;6.376;-10.782;2022-11-15T11:16:55;8.52;;;4.78;;
56321;SDS011;42227;6.376;-10.782;2022-11-15T11:22:19;4.97;;;3.45;;
56321;SDS011;42227;6.376;-10.782;2022-11-15T11:27:59;6.45;;;5.30;;
56321;SDS011;42227;6.376;-10.782;2022-11-15T11:30:48;14.73;;;5.20;;
56321;SDS011;42227;6.376;-10.782;2022-11-15T11:47:03;8.57;;;4.35;;
56321;SDS011;42227;6.376;-10.782;2022-11-15T11:49:46;4.70;;;3.67;;
56321;SDS011;42227;6.376;-10.782;2022-11-15T11:57:33;6.57;;;3.97;;
56321;SDS011;42227;6.376;-10.782;2022-11-15T12:00:23;4.95;;;3.88;;
56321;SDS011;42227;6.376;-10.782;2022-11-15T12:05:37;10.02;;;5.43;;
56321;SDS011;42227;6.376;-10.782;2022-11-15T12:10:45;4.47;;;3.03;;
56321;SDS011;42227;6.376;-10.782;2022-11-15T12:13:20;7.18;;;3.35;;
56321;SDS011;42227;6.376;-10.782;2022-11-15T12:15:56;4.18;;;3.28;;
56321;SDS011;42227;6.376;-10.782;2022-11-15T12:18:36;5.55;;;3.45;;
56321;SDS011;42227;6.376;-10.782;2022-11-15T12:21:13;5.25;;;3.67;;
56321;SDS011;42227;6.376;-10.782;2022-11-15T12:24:17;6.03;;;3.03;;
56321;SDS011;42227;6.376;-10.782;2022-11-15T12:26:59;4.18;;;3.20;;
56321;SDS011;42227;6.376;-10.782;2022-11-15T12:29:38;5.22;;;3.20;;
56321;SDS011;42227;6.376;-10.782;2022-11-15T12:32:32;8.68;;;2.80;;
56321;SDS011;42227;6.376;-10.782;2022-11-15T12:35:03;5.75;;;3.50;;
56321;SDS011;42227;6.376;-10.782;2022-11-15T12:40:19;14.70;;;3.13;;
56321;SDS011;42227;6.376;-10.782;2022-11-15T12:42:58;5.35;;;4.13;;
56321;SDS011;42227;6.376;-10.782;2022-11-15T12:46:01;6.22;;;4.35;;
56321;SDS011;42227;6.376;-10.782;2022-11-15T12:51:02;5.93;;;3.65;;
56321;SDS011;42227;6.376;-10.782;2022-11-15T12:53:31;6.35;;;4.43;;
56321;SDS011;42227;6.376;-10.782;2022-11-15T13:06:49;15.18;;;7.43;;
56321;SDS011;42227;6.376;-10.782;2022-11-15T13:12:07;17.25;;;5.90;;
56321;SDS011;42227;6.376;-10.782;2022-11-15T13:22:43;17.70;;;6.53;;
56321;SDS011;42227;6.376;-10.782;2022-11-15T13:30:37;9.98;;;5.30;;
56321;SDS011;42227;6.376;-10.782;2022-11-15T13:33:48;15.43;;;6.47;;
56321;SDS011;42227;6.376;-10.782;2022-11-15T13:36:03;11.00;;;4.53;;
56321;SDS011;42227;6.376;-10.782;2022-11-15T13:41:27;11.10;;;4.85;;
56321;SDS011;42227;6.376;-10.782;2022-11-15T13:43:57;14.65;;;5.45;;
56321;SDS011;42227;6.376;-10.782;2022-11-15T13:46:27;13.98;;;5.78;;
56321;SDS011;42227;6.376;-10.782;2022-11-15T13:48:58;8.73;;;4.70;;
56321;SDS011;42227;6.376;-10.782;2022-11-15T13:54:12;7.25;;;4.70;;
56321;SDS011;42227;6.376;-10.782;2022-11-15T13:57:02;10.50;;;5.78;;
56321;SDS011;42227;6.376;-10.782;2022-11-15T13:59:43;12.70;;;5.65;;
56321;SDS011;42227;6.376;-10.782;2022-11-15T14:02:18;10.13;;;6.47;;
56321;SDS011;42227;6.376;-10.782;2022-11-15T14:04:58;6.03;;;5.43;;
56321;SDS011;42227;6.376;-10.782;2022-11-15T14:07:54;8.60;;;6.53;;
56321;SDS011;42227;6.376;-10.782;2022-11-15T14:10:32;7.10;;;5.45;;
56321;SDS011;42227;6.376;-10.782;2022-11-15T14:13:09;9.70;;;6.50;;
56321;SDS011;42227;6.376;-10.782;2022-11-15T14:15:53;7.88;;;5.50;;
56321;SDS011;42227;6.376;-10.782;2022-11-15T14:18:43;6.60;;;4.38;;
56321;SDS011;42227;6.376;-10.782;2022-11-15T14:21:17;13.55;;;6.25;;
56321;SDS011;42227;6.376;-10.782;2022-11-15T14:23:46;5.78;;;5.05;;
56321;SDS011;42227;6.376;-10.782;2022-11-15T14:26:28;14.45;;;6.05;;
56321;SDS011;42227;6.376;-10.782;2022-11-15T14:29:34;7.45;;;4.80;;
56321;SDS011;42227;6.376;-10.782;2022-11-15T14:35:00;6.78;;;4.72;;
56321;SDS011;42227;6.376;-10.782;2022-11-15T14:37:31;4.72;;;4.30;;
56321;SDS011;42227;6.376;-10.782;2022-11-15T14:40:02;7.35;;;4.50;;
56321;SDS011;42227;6.376;-10.782;2022-11-15T14:42:32;6.90;;;4.05;;
56321;SDS011;42227;6.376;-10.782;2022-11-15T14:45:00;14.05;;;5.25;;
56321;SDS011;42227;6.376;-10.782;2022-11-15T14:47:29;7.60;;;4.57;;
56321;SDS011;42227;6.376;-10.782;2022-11-15T14:49:57;11.77;;;4.85;;
56321;SDS011;42227;6.376;-10.782;2022-11-15T14:54:59;5.88;;;3.83;;
56321;SDS011;42227;6.376;-10.782;2022-11-15T14:57:28;12.55;;;4.97;;
56321;SDS011;42227;6.376;-10.782;2022-11-15T14:59:57;11.80;;;4.57;;
56321;SDS011;42227;6.376;-10.782;2022-11-15T15:02:38;7.68;;;4.47;;
56321;SDS011;42227;6.376;-10.782;2022-11-15T15:07:50;5.45;;;3.58;;
56321;SDS011;42227;6.376;-10.782;2022-11-15T15:10:18;4.22;;;3.47;;
56321;SDS011;42227;6.376;-10.782;2022-11-15T15:13:18;8.63;;;3.78;;
56321;SDS011;42227;6.376;-10.782;2022-11-15T15:15:51;5.68;;;4.25;;
56321;SDS011;42227;6.376;-10.782;2022-11-15T15:18:19;5.15;;;4.07;;
56321;SDS011;42227;6.376;-10.782;2022-11-15T15:20:50;7.68;;;3.75;;
56321;SDS011;42227;6.376;-10.782;2022-11-15T15:23:23;8.65;;;3.95;;
56321;SDS011;42227;6.376;-10.782;2022-11-15T15:25:51;9.55;;;4.82;;
56321;SDS011;42227;6.376;-10.782;2022-11-15T15:28:19;10.93;;;4.75;;
56321;SDS011;42227;6.376;-10.782;2022-11-15T15:30:48;4.65;;;3.83;;
56321;SDS011;42227;6.376;-10.782;2022-11-15T15:33:16;6.80;;;4.40;;
56321;SDS011;42227;6.376;-10.782;2022-11-15T15:35:44;5.30;;;3.50;;
56321;SDS011;42227;6.376;-10.782;2022-11-15T15:38:12;8.40;;;4.35;;
56321;SDS011;42227;6.376;-10.782;2022-11-15T15:40:41;10.52;;;5.15;;
56321;SDS011;42227;6.376;-10.782;2022-11-15T15:43:09;12.13;;;4.32;;
56321;SDS011;42227;6.376;-10.782;2022-11-15T15:45:39;10.43;;;4.53;;
56321;SDS011;42227;6.376;-10.782;2022-11-15T15:48:15;4.40;;;3.87;;
56321;SDS011;42227;6.376;-10.782;2022-11-15T15:50:44;7.47;;;4.93;;
56321;SDS011;42227;6.376;-10.782;2022-11-15T15:53:12;9.07;;;8.18;;
56321;SDS011;42227;6.376;-10.782;2022-11-15T15:55:40;18.52;;;8.93;;
56321;SDS011;42227;6.376;-10.782;2022-11-15T15:58:09;7.18;;;4.05;;
56321;SDS011;42227;6.376;-10.782;2022-11-15T16:00:37;10.82;;;5.45;;
56321;SDS011;42227;6.376;-10.782;2022-11-15T16:03:06;6.45;;;4.32;;
56321;SDS011;42227;6.376;-10.782;2022-11-15T16:05:34;8.05;;;4.13;;
56321;SDS011;42227;6.376;-10.782;2022-11-15T16:08:02;8.20;;;5.03;;
56321;SDS011;42227;6.376;-10.782;2022-11-15T16:10:31;8.98;;;5.15;;
56321;SDS011;42227;6.376;-10.782;2022-11-15T16:13:01;6.93;;;4.82;;
56321;SDS011;42227;6.376;-10.782;2022-11-15T16:15:30;9.02;;;4.63;;
56321;SDS011;42227;6.376;-10.782;2022-11-15T16:18:00;6.15;;;4.05;;
56321;SDS011;42227;6.376;-10.782;2022-11-15T16:20:45;20.33;;;7.45;;
56321;SDS011;42227;6.376;-10.782;2022-11-15T16:23:16;16.38;;;4.95;;
56321;SDS011;42227;6.376;-10.782;2022-11-15T16:25:53;6.35;;;3.58;;
56321;SDS011;42227;6.376;-10.782;2022-11-15T16:28:26;4.43;;;2.92;;
56321;SDS011;42227;6.376;-10.782;2022-11-15T16:31:07;7.38;;;3.90;;
56321;SDS011;42227;6.376;-10.782;2022-11-15T16:38:09;9.50;;;4.53;;
56321;SDS011;42227;6.376;-10.782;2022-11-15T16:40:42;8.02;;;5.22;;
56321;SDS011;42227;6.376;-10.782;2022-11-15T16:43:10;6.63;;;4.00;;
56321;SDS011;42227;6.376;-10.782;2022-11-15T16:45:38;7.55;;;4.60;;
56321;SDS011;42227;6.376;-10.782;2022-11-15T16:48:07;7.47;;;4.85;;
56321;SDS011;42227;6.376;-10.782;2022-11-15T16:50:56;8.82;;;3.92;;
56321;SDS011;42227;6.376;-10.782;2022-11-15T16:55:53;7.10;;;5.20;;
56321;SDS011;42227;6.376;-10.782;2022-11-15T16:58:22;7.55;;;5.80;;
56321;SDS011;42227;6.376;-10.782;2022-11-15T17:00:51;10.27;;;4.95;;
56321;SDS011;42227;6.376;-10.782;2022-11-15T17:03:21;4.40;;;3.58;;
56321;SDS011;42227;6.376;-10.782;2022-11-15T17:05:50;10.75;;;5.18;;
56321;SDS011;42227;6.376;-10.782;2022-11-15T17:08:19;10.23;;;6.82;;
56321;SDS011;42227;6.376;-10.782;2022-11-15T17:10:47;11.80;;;8.68;;
56321;SDS011;42227;6.376;-10.782;2022-11-15T17:13:16;20.40;;;12.35;;
56321;SDS011;42227;6.376;-10.782;2022-11-15T17:15:44;11.63;;;7.53;;
56321;SDS011;42227;6.376;-10.782;2022-11-15T17:18:12;7.28;;;5.88;;
56321;SDS011;42227;6.376;-10.782;2022-11-15T17:20:41;12.50;;;6.65;;
56321;SDS011;42227;6.376;-10.782;2022-11-15T17:23:12;13.65;;;7.43;;
56321;SDS011;42227;6.376;-10.782;2022-11-15T17:25:41;11.32;;;8.15;;
56321;SDS011;42227;6.376;-10.782;2022-11-15T17:28:09;21.02;;;7.95;;
56321;SDS011;42227;6.376;-10.782;2022-11-15T17:30:39;13.48;;;6.85;;
56321;SDS011;42227;6.376;-10.782;2022-11-15T17:33:08;12.10;;;7.15;;
56321;SDS011;42227;6.376;-10.782;2022-11-15T17:35:36;26.63;;;11.10;;
56321;SDS011;42227;6.376;-10.782;2022-11-15T17:38:05;13.73;;;9.40;;
56321;SDS011;42227;6.376;-10.782;2022-11-15T17:40:33;29.35;;;11.85;;
56321;SDS011;42227;6.376;-10.782;2022-11-15T17:43:03;14.80;;;11.68;;
56321;SDS011;42227;6.376;-10.782;2022-11-15T17:45:32;13.82;;;8.88;;
56321;SDS011;42227;6.376;-10.782;2022-11-15T17:48:00;17.98;;;11.63;;
56321;SDS011;42227;6.376;-10.782;2022-11-15T17:50:29;14.02;;;11.55;;
56321;SDS011;42227;6.376;-10.782;2022-11-15T17:52:57;23.83;;;10.18;;
56321;SDS011;42227;6.376;-10.782;2022-11-15T17:55:26;19.63;;;10.95;;
56321;SDS011;42227;6.376;-10.782;2022-11-15T17:57:54;16.10;;;10.73;;
56321;SDS011;42227;6.376;-10.782;2022-11-15T18:00:23;18.83;;;11.40;;
56321;SDS011;42227;6.376;-10.782;2022-11-15T18:02:51;13.95;;;10.70;;
56321;SDS011;42227;6.376;-10.782;2022-11-15T18:05:19;20.83;;;13.05;;
56321;SDS011;42227;6.376;-10.782;2022-11-15T18:07:48;22.25;;;15.18;;
56321;SDS011;42227;6.376;-10.782;2022-11-15T18:10:16;16.50;;;13.50;;
56321;SDS011;42227;6.376;-10.782;2022-11-15T18:12:44;19.67;;;16.45;;
56321;SDS011;42227;6.376;-10.782;2022-11-15T18:15:13;25.90;;;18.80;;
56321;SDS011;42227;6.376;-10.782;2022-11-15T18:17:41;36.20;;;21.80;;
56321;SDS011;42227;6.376;-10.782;2022-11-15T18:20:09;25.80;;;19.98;;
56321;SDS011;42227;6.376;-10.782;2022-11-15T18:22:38;21.60;;;13.38;;
56321;SDS011;42227;6.376;-10.782;2022-11-15T18:25:06;12.57;;;11.38;;
56321;SDS011;42227;6.376;-10.782;2022-11-15T18:27:34;24.83;;;12.50;;
56321;SDS011;42227;6.376;-10.782;2022-11-15T18:30:03;20.52;;;12.52;;
56321;SDS011;42227;6.376;-10.782;2022-11-15T18:32:32;18.30;;;10.82;;
56321;SDS011;42227;6.376;-10.782;2022-11-15T18:35:00;18.83;;;11.02;;
56321;SDS011;42227;6.376;-10.782;2022-11-15T18:37:28;20.17;;;10.05;;